createdAt,value
2018-05-14T00:00:50.087Z,39.70
2018-05-14T00:03:17.891Z,39.70
2018-05-14T00:05:45.495Z,39.60
2018-05-14T00:08:13.016Z,39.80
2018-05-14T00:10:40.535Z,39.70
2018-05-14T00:13:08.036Z,39.90
2018-05-14T00:15:36.328Z,40.00
2018-05-14T00:18:04.643Z,40.10
2018-05-14T00:20:32.251Z,40.10
2018-05-14T00:22:59.789Z,40.70
2018-05-14T00:25:27.327Z,40.10
2018-05-14T00:27:55.605Z,40.00
2018-05-14T00:30:23.095Z,40.00
2018-05-14T00:32:51.479Z,40.00
2018-05-14T00:35:19.741Z,40.20
2018-05-14T00:37:48.781Z,40.80
2018-05-14T00:40:17.033Z,40.50
2018-05-14T00:42:44.566Z,40.40
2018-05-14T00:45:12.069Z,40.60
2018-05-14T00:47:40.247Z,41.00
2018-05-14T00:50:07.855Z,40.40
2018-05-14T00:52:35.377Z,40.60
2018-05-14T00:55:14.897Z,40.60
2018-05-14T00:57:43.133Z,40.50
2018-05-14T01:00:10.669Z,40.40
2018-05-14T01:02:38.179Z,40.50
2018-05-14T01:05:05.686Z,40.70
2018-05-14T01:07:33.983Z,40.80
2018-05-14T01:10:02.369Z,41.20
2018-05-14T01:12:30.652Z,41.20
2018-05-14T01:14:58.933Z,41.50
2018-05-14T01:17:26.541Z,41.00
2018-05-14T01:19:54.098Z,40.90
2018-05-14T01:22:22.401Z,41.20
2018-05-14T01:24:55.540Z,41.10
2018-05-14T01:27:23.061Z,40.90
2018-05-14T01:29:50.655Z,41.10
2018-05-14T01:32:18.183Z,40.90
2018-05-14T01:34:46.465Z,41.10
2018-05-14T01:37:14.089Z,41.00
2018-05-14T01:39:42.387Z,41.30
2018-05-14T01:42:09.926Z,41.30
2018-05-14T01:44:38.300Z,41.10
2018-05-14T01:47:05.798Z,41.10
2018-05-14T01:49:33.349Z,41.10
2018-05-14T01:52:00.910Z,41.60
2018-05-14T01:54:28.611Z,41.40
2018-05-14T01:56:56.094Z,41.60
2018-05-14T01:59:23.616Z,41.60
2018-05-14T02:01:51.199Z,42.00
2018-05-14T02:04:19.483Z,42.30
2018-05-14T02:06:47.079Z,42.10
2018-05-14T02:09:14.630Z,42.00
2018-05-14T02:11:42.982Z,42.30
2018-05-14T02:14:10.725Z,42.30
2018-05-14T02:16:38.265Z,42.20
2018-05-14T02:19:06.525Z,42.60
2018-05-14T02:21:34.036Z,42.60
2018-05-14T02:24:02.292Z,42.50
2018-05-14T02:26:29.892Z,42.50
2018-05-14T02:28:58.252Z,42.80
2018-05-14T02:31:25.782Z,42.80
2018-05-14T02:33:53.403Z,43.10
2018-05-14T02:36:20.895Z,43.10
2018-05-14T02:38:48.460Z,43.00
2018-05-14T02:41:16.720Z,43.60
2018-05-14T02:43:44.329Z,43.30
2018-05-14T02:46:12.633Z,44.20
2018-05-14T02:48:40.156Z,43.70
2018-05-14T02:51:07.664Z,43.70
2018-05-14T02:53:36.055Z,43.70
2018-05-14T02:56:03.599Z,43.70
2018-05-14T02:58:31.117Z,43.70
2018-05-14T03:00:58.651Z,43.80
2018-05-14T03:03:26.247Z,43.80
2018-05-14T03:05:53.813Z,43.90
2018-05-14T03:08:22.077Z,43.80
2018-05-14T03:10:51.136Z,44.00
2018-05-14T03:13:18.635Z,43.90
2018-05-14T03:15:46.165Z,44.10
2018-05-14T03:18:13.646Z,44.00
2018-05-14T03:20:41.179Z,44.10
2018-05-14T03:23:09.415Z,44.40
2018-05-14T03:25:36.946Z,44.40
2018-05-14T03:28:04.442Z,44.40
2018-05-14T03:30:32.145Z,44.50
2018-05-14T03:32:59.635Z,44.60
2018-05-14T03:35:27.160Z,44.60
2018-05-14T03:37:54.679Z,45.30
2018-05-14T03:40:22.265Z,44.80
2018-05-14T03:42:50.534Z,45.00
2018-05-14T03:45:18.345Z,45.00
2018-05-14T03:47:45.839Z,45.10
2018-05-14T03:50:13.599Z,45.20
2018-05-14T03:52:41.088Z,45.20
2018-05-14T03:55:08.633Z,45.30
2018-05-14T03:57:36.219Z,45.30
2018-05-14T04:00:15.838Z,45.40
2018-05-14T04:02:56.013Z,45.80
2018-05-14T04:05:36.331Z,45.60
2018-05-14T04:08:03.855Z,45.60
2018-05-14T04:10:32.234Z,45.80
2018-05-14T04:13:00.620Z,46.20
2018-05-14T04:15:28.211Z,46.00
2018-05-14T04:17:56.516Z,46.10
2018-05-14T04:20:24.812Z,46.00
2018-05-14T04:22:52.540Z,46.20
2018-05-14T04:25:20.132Z,46.20
2018-05-14T04:27:48.641Z,46.20
2018-05-14T04:30:16.234Z,46.20
2018-05-14T04:32:43.800Z,46.30
2018-05-14T04:35:11.343Z,46.50
2018-05-14T04:37:38.904Z,46.70
2018-05-14T04:40:07.179Z,46.50
2018-05-14T04:42:35.199Z,46.50
2018-05-14T04:45:02.772Z,46.50
2018-05-14T04:47:30.340Z,46.50
2018-05-14T04:49:57.904Z,46.60
2018-05-14T04:52:26.276Z,46.90
2018-05-14T04:54:53.761Z,46.90
2018-05-14T04:57:22.019Z,46.80
2018-05-14T04:59:49.648Z,46.80
2018-05-14T05:02:17.217Z,46.80
2018-05-14T05:04:44.776Z,46.90
2018-05-14T05:07:12.256Z,46.90
2018-05-14T05:09:39.839Z,47.00
2018-05-14T05:12:07.368Z,47.10
2018-05-14T05:14:35.735Z,47.00
2018-05-14T05:17:03.259Z,47.00
2018-05-14T05:19:30.754Z,47.10
2018-05-14T05:21:58.465Z,47.00
2018-05-14T05:24:26.730Z,47.10
2018-05-14T05:26:54.257Z,47.10
2018-05-14T05:29:21.905Z,47.40
2018-05-14T05:31:50.428Z,47.40
2018-05-14T05:34:17.995Z,47.40
2018-05-14T05:36:45.507Z,47.40
2018-05-14T05:39:13.018Z,47.60
2018-05-14T05:41:41.434Z,47.60
2018-05-14T05:44:09.107Z,47.60
2018-05-14T05:46:36.619Z,47.40
2018-05-14T05:49:04.230Z,47.60
2018-05-14T05:51:31.876Z,47.50
2018-05-14T05:53:59.415Z,47.20
2018-05-14T05:56:26.903Z,47.30
2018-05-14T05:58:54.452Z,47.30
2018-05-14T06:01:22.026Z,47.40
2018-05-14T06:03:49.740Z,47.20
2018-05-14T06:06:17.555Z,47.20
2018-05-14T06:08:45.263Z,47.20
2018-05-14T06:11:12.796Z,47.30
2018-05-14T06:13:40.367Z,47.20
2018-05-14T06:16:07.922Z,47.30
2018-05-14T06:18:36.323Z,47.30
2018-05-14T06:21:03.822Z,47.30
2018-05-14T06:23:31.378Z,47.10
2018-05-14T06:25:59.158Z,46.90
2018-05-14T06:28:26.728Z,46.90
2018-05-14T06:30:54.329Z,46.90
2018-05-14T06:33:21.864Z,46.70
2018-05-14T06:35:49.485Z,46.50
2018-05-14T06:38:16.934Z,46.40
2018-05-14T06:40:44.615Z,46.20
2018-05-14T06:43:12.139Z,46.20
2018-05-14T06:45:40.421Z,46.20
2018-05-14T06:48:08.681Z,46.60
2018-05-14T06:50:36.229Z,46.20
2018-05-14T06:53:03.779Z,45.70
2018-05-14T06:55:31.316Z,45.60
2018-05-14T06:57:59.589Z,46.20
2018-05-14T07:00:27.105Z,45.70
2018-05-14T07:02:54.594Z,45.70
2018-05-14T07:05:22.140Z,45.50
2018-05-14T07:07:49.785Z,45.40
2018-05-14T07:10:18.035Z,44.90
2018-05-14T07:12:45.556Z,44.80
2018-05-14T07:15:13.957Z,44.70
2018-05-14T07:17:42.236Z,44.80
2018-05-14T07:20:10.494Z,44.90
2018-05-14T07:22:38.253Z,44.80
2018-05-14T07:25:05.767Z,44.70
2018-05-14T07:27:34.097Z,44.90
2018-05-14T07:30:01.611Z,44.80
2018-05-14T07:32:29.137Z,44.90
2018-05-14T07:34:56.637Z,44.80
2018-05-14T07:37:24.183Z,44.90
2018-05-14T07:39:51.851Z,44.80
2018-05-14T07:42:19.342Z,44.60
2018-05-14T07:44:46.876Z,44.10
2018-05-14T07:47:14.372Z,43.80
2018-05-14T07:49:42.029Z,44.10
2018-05-14T07:52:09.654Z,44.20
2018-05-14T07:54:37.138Z,44.30
2018-05-14T07:57:05.418Z,43.80
2018-05-14T07:59:32.975Z,43.80
2018-05-14T08:02:01.279Z,43.70
2018-05-14T08:04:28.872Z,43.60
2018-05-14T08:06:56.350Z,43.60
2018-05-14T08:09:24.138Z,42.90
2018-05-14T08:11:51.627Z,42.90
2018-05-14T08:14:19.220Z,42.70
2018-05-14T08:16:46.832Z,42.20
2018-05-14T08:19:15.217Z,41.90
2018-05-14T08:21:43.540Z,41.90
2018-05-14T08:24:11.064Z,41.90
2018-05-14T08:26:39.448Z,42.30
2018-05-14T08:29:07.038Z,41.70
2018-05-14T08:31:35.397Z,41.30
2018-05-14T08:34:02.913Z,41.30
2018-05-14T08:36:30.438Z,41.00
2018-05-14T08:38:58.199Z,40.90
2018-05-14T08:41:25.637Z,39.90
2018-05-14T08:43:53.167Z,38.10
2018-05-14T08:46:20.770Z,37.90
2018-05-14T08:48:48.259Z,37.40
2018-05-14T08:51:15.780Z,36.50
2018-05-14T08:53:43.384Z,36.30
2018-05-14T08:56:11.034Z,36.30
2018-05-14T08:58:38.552Z,35.20
2018-05-14T09:01:06.233Z,35.30
2018-05-14T09:03:33.671Z,34.70
2018-05-14T09:06:01.161Z,34.90
2018-05-14T09:08:28.740Z,34.60
2018-05-14T09:10:56.257Z,33.90
2018-05-14T09:13:24.575Z,34.50
2018-05-14T09:15:52.141Z,34.40
2018-05-14T09:18:19.680Z,34.60
2018-05-14T09:20:47.254Z,34.80
2018-05-14T09:23:14.929Z,34.40
2018-05-14T09:25:42.532Z,33.90
2018-05-14T09:28:10.819Z,34.30
2018-05-14T09:30:38.342Z,34.00
2018-05-14T09:33:05.872Z,33.30
2018-05-14T09:35:33.429Z,33.20
2018-05-14T09:38:00.991Z,33.00
2018-05-14T09:40:29.350Z,32.10
2018-05-14T09:42:56.857Z,32.10
2018-05-14T09:45:24.415Z,32.50
2018-05-14T09:47:51.910Z,31.60
2018-05-14T09:50:19.458Z,31.20
2018-05-14T09:52:47.827Z,30.20
2018-05-14T09:55:16.172Z,29.70
2018-05-14T09:57:46.489Z,29.60
2018-05-14T10:00:15.076Z,29.60
2018-05-14T10:02:43.795Z,29.30
2018-05-14T10:05:11.530Z,29.30
2018-05-14T10:07:39.509Z,29.30
2018-05-14T10:10:07.012Z,29.40
2018-05-14T10:12:34.628Z,29.60
2018-05-14T10:15:02.320Z,29.70
2018-05-14T10:17:30.584Z,27.90
2018-05-14T10:19:58.864Z,28.20
2018-05-14T10:22:27.911Z,27.80
2018-05-14T10:24:55.417Z,27.80
2018-05-14T10:27:22.907Z,26.60
2018-05-14T10:29:50.420Z,26.20
2018-05-14T10:32:17.943Z,26.20
2018-05-14T10:34:45.501Z,25.50
2018-05-14T10:37:12.999Z,25.20
2018-05-14T10:39:40.514Z,24.00
2018-05-14T10:42:08.195Z,24.60
2018-05-14T10:44:35.716Z,24.00
2018-05-14T10:47:03.310Z,25.40
2018-05-14T10:49:31.648Z,23.90
2018-05-14T10:51:59.137Z,23.90
2018-05-14T10:54:26.658Z,24.70
2018-05-14T10:56:54.182Z,23.60
2018-05-14T10:59:22.461Z,23.60
2018-05-14T11:01:49.997Z,23.60
2018-05-14T11:04:17.644Z,22.60
2018-05-14T11:06:45.921Z,22.20
2018-05-14T11:09:13.568Z,22.10
2018-05-14T11:11:41.152Z,21.40
2018-05-14T11:14:08.732Z,22.00
2018-05-14T11:16:37.787Z,22.20
2018-05-14T11:19:05.281Z,22.20
2018-05-14T11:21:32.810Z,21.40
2018-05-14T11:24:00.372Z,21.70
2018-05-14T11:26:28.857Z,22.30
2018-05-14T11:28:57.128Z,22.10
2018-05-14T11:31:24.619Z,22.10
2018-05-14T11:33:53.003Z,22.10
2018-05-14T11:36:21.413Z,21.80
2018-05-14T11:38:48.946Z,21.80
2018-05-14T11:41:16.428Z,20.60
2018-05-14T11:43:44.734Z,19.90
2018-05-14T11:46:12.981Z,20.10
2018-05-14T11:48:40.498Z,20.10
2018-05-14T11:51:09.124Z,19.30
2018-05-14T11:53:36.652Z,19.30
2018-05-14T11:56:04.955Z,21.20
2018-05-14T11:58:32.525Z,21.20
2018-05-14T12:01:00.040Z,21.40
2018-05-14T12:03:27.655Z,19.90
2018-05-14T12:05:55.959Z,20.20
2018-05-14T12:08:23.480Z,20.20
2018-05-14T12:10:51.000Z,19.80
2018-05-14T12:13:18.550Z,20.50
2018-05-14T12:15:46.800Z,20.10
2018-05-14T12:18:14.364Z,20.00
2018-05-14T12:20:41.877Z,19.70
2018-05-14T12:23:09.396Z,19.70
2018-05-14T12:25:36.953Z,19.20
2018-05-14T12:28:04.489Z,19.70
2018-05-14T12:30:32.790Z,19.80
2018-05-14T12:33:01.038Z,20.10
2018-05-14T12:35:28.573Z,20.10
2018-05-14T12:37:56.238Z,20.00
2018-05-14T12:40:23.914Z,19.90
2018-05-14T12:42:51.394Z,19.20
2018-05-14T12:45:18.987Z,19.90
2018-05-14T12:47:46.568Z,19.50
2018-05-14T12:50:14.060Z,19.30
2018-05-14T12:52:41.741Z,19.70
2018-05-14T12:55:10.012Z,19.90
2018-05-14T12:57:37.704Z,19.80
2018-05-14T13:00:05.201Z,19.80
2018-05-14T13:02:33.601Z,20.40
2018-05-14T13:05:01.144Z,20.40
2018-05-14T13:07:28.656Z,20.00
2018-05-14T13:09:56.308Z,19.50
2018-05-14T13:12:23.837Z,20.00
2018-05-14T13:14:51.375Z,20.30
2018-05-14T13:17:18.910Z,20.30
2018-05-14T13:19:47.238Z,20.70
2018-05-14T13:22:15.672Z,21.10
2018-05-14T13:24:43.264Z,21.10
2018-05-14T13:27:11.546Z,20.70
2018-05-14T13:29:39.079Z,20.70
2018-05-14T13:32:06.927Z,20.90
2018-05-14T13:34:35.158Z,21.40
2018-05-14T13:37:02.796Z,21.30
2018-05-14T13:39:30.336Z,21.50
2018-05-14T13:41:58.727Z,21.50
2018-05-14T13:44:27.055Z,21.00
2018-05-14T13:46:54.564Z,21.00
2018-05-14T13:49:22.143Z,21.40
2018-05-14T13:51:49.941Z,21.20
2018-05-14T13:54:18.191Z,21.70
2018-05-14T13:56:45.719Z,21.70
2018-05-14T13:59:13.256Z,21.80
2018-05-14T14:01:41.626Z,21.70
2018-05-14T14:04:10.657Z,21.50
2018-05-14T14:06:39.032Z,21.40
2018-05-14T14:09:06.744Z,21.40
2018-05-14T14:11:34.407Z,21.50
2018-05-14T14:14:01.989Z,21.10
2018-05-14T14:16:29.535Z,21.70
2018-05-14T14:18:57.849Z,22.30
2018-05-14T14:21:25.430Z,22.30
2018-05-14T14:23:52.950Z,21.90
2018-05-14T14:26:20.483Z,21.80
2018-05-14T14:28:48.025Z,21.90
2018-05-14T14:31:16.302Z,21.80
2018-05-14T14:33:44.560Z,21.70
2018-05-14T14:36:12.376Z,21.70
2018-05-14T14:38:40.553Z,23.10
2018-05-14T14:41:08.998Z,23.40
2018-05-14T14:43:36.524Z,23.30
2018-05-14T14:46:04.790Z,22.20
2018-05-14T14:48:32.470Z,22.20
2018-05-14T14:51:00.049Z,22.30
2018-05-14T14:53:28.437Z,22.20
2018-05-14T14:55:56.724Z,22.40
2018-05-14T14:58:24.219Z,22.40
2018-05-14T15:00:51.804Z,22.10
2018-05-14T15:03:19.292Z,21.90
2018-05-14T15:05:46.916Z,22.20
2018-05-14T15:08:15.297Z,22.30
2018-05-14T15:10:42.886Z,22.30
2018-05-14T15:13:10.462Z,22.60
2018-05-14T15:15:38.727Z,22.80
2018-05-14T15:18:06.226Z,22.80
2018-05-14T15:20:33.761Z,23.20
2018-05-14T15:23:01.781Z,22.90
2018-05-14T15:25:29.337Z,23.90
2018-05-14T15:27:57.641Z,23.00
2018-05-14T15:30:25.193Z,23.00
2018-05-14T15:32:52.757Z,23.40
2018-05-14T15:35:20.354Z,22.80
2018-05-14T15:37:47.883Z,23.30
2018-05-14T15:40:15.482Z,23.40
2018-05-14T15:42:43.852Z,23.00
2018-05-14T15:45:11.472Z,23.00
2018-05-14T15:47:39.136Z,23.50
2018-05-14T15:50:06.628Z,23.50
2018-05-14T15:52:34.149Z,24.30
2018-05-14T15:55:02.554Z,24.00
2018-05-14T15:57:30.178Z,24.00
2018-05-14T15:59:57.662Z,24.40
2018-05-14T16:02:25.400Z,24.40
2018-05-14T16:04:52.957Z,25.10
2018-05-14T16:07:20.514Z,24.20
2018-05-14T16:09:48.897Z,24.30
2018-05-14T16:12:17.161Z,25.00
2018-05-14T16:14:45.467Z,24.80
2018-05-14T16:17:13.042Z,24.80
2018-05-14T16:19:41.357Z,25.10
2018-05-14T16:22:09.818Z,25.00
2018-05-14T16:24:37.318Z,25.00
2018-05-14T16:27:05.603Z,24.90
2018-05-14T16:29:33.196Z,24.90
2018-05-14T16:32:00.723Z,25.20
2018-05-14T16:34:29.103Z,25.10
2018-05-14T16:36:57.368Z,25.50
2018-05-14T16:39:24.987Z,25.50
2018-05-14T16:41:53.793Z,25.50
2018-05-14T16:44:21.279Z,25.50
2018-05-14T16:46:48.774Z,25.90
2018-05-14T16:49:16.406Z,25.50
2018-05-14T16:51:44.853Z,25.90
2018-05-14T16:54:12.391Z,25.90
2018-05-14T16:56:40.044Z,26.40
2018-05-14T16:59:08.446Z,26.10
2018-05-14T17:01:36.922Z,25.70
2018-05-14T17:04:05.314Z,25.60
2018-05-14T17:06:32.752Z,25.60
2018-05-14T17:09:00.341Z,25.10
2018-05-14T17:11:28.765Z,26.30
2018-05-14T17:13:56.271Z,26.10
2018-05-14T17:16:23.829Z,25.30
2018-05-14T17:18:51.485Z,25.50
2018-05-14T17:21:19.031Z,25.60
2018-05-14T17:23:47.321Z,26.30
2018-05-14T17:26:15.614Z,26.10
2018-05-14T17:28:43.884Z,26.40
2018-05-14T17:31:12.169Z,27.00
2018-05-14T17:33:40.456Z,26.80
2018-05-14T17:36:08.713Z,26.40
2018-05-14T17:38:36.309Z,26.40
2018-05-14T17:41:03.830Z,26.40
2018-05-14T17:43:32.012Z,25.90
2018-05-14T17:45:59.868Z,26.20
2018-05-14T17:48:28.975Z,27.00
2018-05-14T17:50:57.253Z,26.60
2018-05-14T17:53:25.509Z,26.20
2018-05-14T17:55:53.151Z,26.50
2018-05-14T17:58:20.701Z,27.00
2018-05-14T18:00:49.085Z,27.10
2018-05-14T18:03:17.367Z,27.20
2018-05-14T18:05:45.661Z,27.90
2018-05-14T18:08:13.931Z,27.00
2018-05-14T18:10:41.483Z,26.90
2018-05-14T18:13:09.000Z,27.20
2018-05-14T18:15:40.270Z,27.60
2018-05-14T18:18:07.799Z,27.60
2018-05-14T18:20:38.261Z,27.20
2018-05-14T18:23:05.883Z,27.20
2018-05-14T18:25:39.091Z,27.40
2018-05-14T18:28:08.460Z,27.50
2018-05-14T18:30:39.509Z,28.10
2018-05-14T18:33:10.781Z,28.00
2018-05-14T18:35:44.910Z,28.00
2018-05-14T18:38:12.545Z,27.70
2018-05-14T18:40:40.063Z,28.10
2018-05-14T18:43:07.721Z,27.90
2018-05-14T18:45:35.987Z,28.30
2018-05-14T18:48:04.271Z,28.20
2018-05-14T18:50:31.826Z,28.20
2018-05-14T18:52:59.367Z,28.20
2018-05-14T18:55:26.921Z,28.40
2018-05-14T18:57:54.489Z,28.40
2018-05-14T19:00:22.213Z,28.50
2018-05-14T19:02:49.839Z,28.60
2018-05-14T19:05:17.363Z,28.60
2018-05-14T19:07:44.996Z,29.00
2018-05-14T19:10:18.239Z,28.90
2018-05-14T19:12:45.761Z,29.00
2018-05-14T19:15:19.098Z,29.20
2018-05-14T19:17:52.345Z,29.20
2018-05-14T19:20:20.088Z,29.00
2018-05-14T19:22:53.349Z,29.00
2018-05-14T19:25:21.008Z,29.30
2018-05-14T19:27:54.847Z,29.40
2018-05-14T19:30:22.642Z,29.40
2018-05-14T19:32:50.190Z,29.50
2018-05-14T19:35:24.301Z,29.20
2018-05-14T19:37:52.604Z,29.40
2018-05-14T19:40:26.504Z,29.50
2018-05-14T19:42:54.897Z,29.30
2018-05-14T19:45:23.210Z,29.30
2018-05-14T19:47:51.605Z,29.50
2018-05-14T19:50:19.181Z,29.40
2018-05-14T19:52:46.716Z,29.40
2018-05-14T19:55:15.147Z,29.60
2018-05-14T19:57:42.665Z,29.50
2018-05-14T20:00:10.396Z,29.60
2018-05-14T20:02:38.060Z,29.60
2018-05-14T20:05:05.689Z,30.00
2018-05-14T20:07:33.268Z,29.70
2018-05-14T20:10:00.932Z,30.00
2018-05-14T20:12:28.557Z,29.70
2018-05-14T20:14:56.224Z,29.80
2018-05-14T20:17:23.768Z,29.90
2018-05-14T20:19:51.838Z,29.90
2018-05-14T20:22:19.449Z,29.80
2018-05-14T20:24:47.057Z,29.80
2018-05-14T20:27:14.577Z,30.00
2018-05-14T20:29:42.899Z,30.30
2018-05-14T20:32:10.470Z,30.20
2018-05-14T20:34:38.008Z,30.20
2018-05-14T20:37:06.332Z,31.10
2018-05-14T20:39:33.821Z,31.10
2018-05-14T20:42:01.362Z,31.20
2018-05-14T20:44:28.855Z,30.90
2018-05-14T20:46:56.430Z,30.80
2018-05-14T20:49:23.977Z,31.20
2018-05-14T20:51:51.536Z,31.40
2018-05-14T20:54:19.149Z,31.20
2018-05-14T20:56:46.722Z,31.20
2018-05-14T20:59:14.293Z,31.30
2018-05-14T21:01:41.963Z,31.50
2018-05-14T21:04:09.445Z,31.60
2018-05-14T21:06:37.071Z,31.60
2018-05-14T21:09:06.276Z,32.60
2018-05-14T21:11:33.862Z,32.10
2018-05-14T21:14:01.573Z,32.20
2018-05-14T21:16:29.156Z,32.50
2018-05-14T21:18:56.701Z,32.70
2018-05-14T21:21:24.365Z,32.50
2018-05-14T21:23:51.893Z,32.60
2018-05-14T21:26:20.160Z,32.80
2018-05-14T21:28:47.719Z,32.80
2018-05-14T21:31:15.248Z,32.90
2018-05-14T21:33:43.712Z,33.10
2018-05-14T21:36:11.290Z,33.10
2018-05-14T21:38:39.582Z,33.30
2018-05-14T21:41:07.927Z,33.30
2018-05-14T21:43:35.420Z,33.30
2018-05-14T21:46:03.039Z,33.30
2018-05-14T21:48:30.582Z,33.40
2018-05-14T21:50:58.829Z,33.70
2018-05-14T21:53:26.584Z,33.60
2018-05-14T21:55:54.074Z,33.70
2018-05-14T21:58:21.717Z,33.80
2018-05-14T22:00:49.263Z,33.80
2018-05-14T22:03:17.567Z,34.00
2018-05-14T22:05:50.868Z,34.00
2018-05-14T22:08:18.405Z,34.00
2018-05-14T22:10:45.909Z,34.10
2018-05-14T22:13:14.203Z,34.30
2018-05-14T22:15:41.692Z,34.30
2018-05-14T22:18:09.221Z,34.40
2018-05-14T22:20:36.877Z,34.50
2018-05-14T22:23:04.468Z,34.50
2018-05-14T22:25:32.764Z,34.70
2018-05-14T22:28:00.333Z,34.70
2018-05-14T22:30:28.605Z,34.80
2018-05-14T22:32:56.127Z,34.80
2018-05-14T22:35:23.699Z,34.90
2018-05-14T22:37:51.234Z,35.00
2018-05-14T22:40:19.504Z,35.30
2018-05-14T22:42:47.018Z,35.30
2018-05-14T22:45:14.660Z,35.40
2018-05-14T22:47:42.394Z,35.50
2018-05-14T22:50:09.970Z,36.20
2018-05-14T22:52:37.502Z,35.80
2018-05-14T22:55:05.009Z,35.90
2018-05-14T22:57:32.525Z,36.00
2018-05-14T23:00:00.893Z,36.10
2018-05-14T23:02:28.485Z,36.00
2018-05-14T23:04:56.760Z,36.20
2018-05-14T23:07:25.038Z,36.30
2018-05-14T23:09:52.655Z,36.30
2018-05-14T23:12:20.223Z,36.50
2018-05-14T23:14:47.777Z,36.60
2018-05-14T23:17:16.124Z,36.80
2018-05-14T23:19:43.633Z,36.80
2018-05-14T23:22:17.944Z,36.90
2018-05-14T23:24:45.503Z,37.10
2018-05-14T23:27:12.976Z,37.20
2018-05-14T23:29:40.717Z,37.30
2018-05-14T23:32:08.237Z,37.30
2018-05-14T23:34:36.772Z,37.40
2018-05-14T23:37:04.310Z,37.40
2018-05-14T23:39:31.756Z,37.50
2018-05-14T23:41:59.280Z,37.60
2018-05-14T23:44:26.941Z,37.60
2018-05-14T23:46:55.283Z,37.80
2018-05-14T23:49:22.789Z,37.70
2018-05-14T23:51:51.108Z,37.70
2018-05-14T23:54:18.821Z,37.70
2018-05-14T23:56:46.324Z,38.40
2018-05-14T23:59:13.898Z,37.90
